sensor_id;sensor_type;location;lat;lon;timestamp;P1;durP1;ratioP1;P2;durP2;ratioP2
15876;SDS011;8037;51.666;7.834;2022-11-20T00:01:10;9.20;;;7.20;;
15876;SDS011;8037;51.666;7.834;2022-11-20T00:03:37;11.43;;;7.70;;
15876;SDS011;8037;51.666;7.834;2022-11-20T00:06:04;8.10;;;6.37;;
15876;SDS011;8037;51.666;7.834;2022-11-20T00:08:31;10.63;;;7.30;;
15876;SDS011;8037;51.666;7.834;2022-11-20T00:10:57;9.60;;;6.60;;
15876;SDS011;8037;51.666;7.834;2022-11-20T00:13:28;11.17;;;8.50;;
15876;SDS011;8037;51.666;7.834;2022-11-20T00:15:58;16.13;;;9.43;;
15876;SDS011;8037;51.666;7.834;2022-11-20T00:18:24;15.60;;;8.53;;
15876;SDS011;8037;51.666;7.834;2022-11-20T00:20:50;26.37;;;9.97;;
15876;SDS011;8037;51.666;7.834;2022-11-20T00:23:16;13.53;;;7.97;;
15876;SDS011;8037;51.666;7.834;2022-11-20T00:25:42;18.53;;;9.77;;
15876;SDS011;8037;51.666;7.834;2022-11-20T00:28:08;17.57;;;8.30;;
15876;SDS011;8037;51.666;7.834;2022-11-20T00:30:37;10.20;;;7.17;;
15876;SDS011;8037;51.666;7.834;2022-11-20T00:33:05;19.07;;;8.87;;
15876;SDS011;8037;51.666;7.834;2022-11-20T00:35:31;17.23;;;8.40;;
15876;SDS011;8037;51.666;7.834;2022-11-20T00:37:56;13.43;;;8.10;;
15876;SDS011;8037;51.666;7.834;2022-11-20T00:40:22;16.07;;;8.30;;
15876;SDS011;8037;51.666;7.834;2022-11-20T00:42:51;11.27;;;7.53;;
15876;SDS011;8037;51.666;7.834;2022-11-20T00:45:17;13.70;;;7.00;;
15876;SDS011;8037;51.666;7.834;2022-11-20T00:47:42;9.20;;;6.07;;
15876;SDS011;8037;51.666;7.834;2022-11-20T00:50:08;10.13;;;5.50;;
15876;SDS011;8037;51.666;7.834;2022-11-20T00:52:34;10.33;;;6.03;;
15876;SDS011;8037;51.666;7.834;2022-11-20T00:55:00;17.13;;;9.47;;
15876;SDS011;8037;51.666;7.834;2022-11-20T00:57:26;30.53;;;16.47;;
15876;SDS011;8037;51.666;7.834;2022-11-20T00:59:52;37.03;;;16.37;;
15876;SDS011;8037;51.666;7.834;2022-11-20T01:02:18;36.40;;;15.80;;
15876;SDS011;8037;51.666;7.834;2022-11-20T01:04:44;32.57;;;14.47;;
15876;SDS011;8037;51.666;7.834;2022-11-20T01:07:10;14.33;;;9.30;;
15876;SDS011;8037;51.666;7.834;2022-11-20T01:09:36;11.17;;;8.30;;
15876;SDS011;8037;51.666;7.834;2022-11-20T01:12:02;16.10;;;9.23;;
15876;SDS011;8037;51.666;7.834;2022-11-20T01:14:28;11.40;;;7.53;;
15876;SDS011;8037;51.666;7.834;2022-11-20T01:16:54;11.87;;;7.60;;
15876;SDS011;8037;51.666;7.834;2022-11-20T01:19:21;11.33;;;7.83;;
15876;SDS011;8037;51.666;7.834;2022-11-20T01:21:49;7.10;;;5.90;;
15876;SDS011;8037;51.666;7.834;2022-11-20T01:24:16;8.67;;;6.67;;
15876;SDS011;8037;51.666;7.834;2022-11-20T01:26:43;8.93;;;6.17;;
15876;SDS011;8037;51.666;7.834;2022-11-20T01:29:12;10.70;;;8.73;;
15876;SDS011;8037;51.666;7.834;2022-11-20T01:31:39;9.17;;;6.87;;
15876;SDS011;8037;51.666;7.834;2022-11-20T01:34:12;7.67;;;6.87;;
15876;SDS011;8037;51.666;7.834;2022-11-20T01:36:40;10.37;;;7.33;;
15876;SDS011;8037;51.666;7.834;2022-11-20T01:39:10;14.73;;;6.17;;
15876;SDS011;8037;51.666;7.834;2022-11-20T01:41:38;10.50;;;5.57;;
15876;SDS011;8037;51.666;7.834;2022-11-20T01:47:23;9.40;;;6.47;;
15876;SDS011;8037;51.666;7.834;2022-11-20T01:49:52;7.90;;;6.80;;
15876;SDS011;8037;51.666;7.834;2022-11-20T01:52:26;8.53;;;6.50;;
15876;SDS011;8037;51.666;7.834;2022-11-20T01:55:07;11.90;;;7.27;;
15876;SDS011;8037;51.666;7.834;2022-11-20T01:57:37;8.13;;;6.40;;
15876;SDS011;8037;51.666;7.834;2022-11-20T02:00:08;14.93;;;5.77;;
15876;SDS011;8037;51.666;7.834;2022-11-20T02:02:36;17.93;;;7.60;;
15876;SDS011;8037;51.666;7.834;2022-11-20T02:05:07;8.53;;;6.73;;
15876;SDS011;8037;51.666;7.834;2022-11-20T02:07:41;9.33;;;6.30;;
15876;SDS011;8037;51.666;7.834;2022-11-20T02:10:07;5.83;;;5.37;;
15876;SDS011;8037;51.666;7.834;2022-11-20T02:12:33;11.40;;;7.20;;
15876;SDS011;8037;51.666;7.834;2022-11-20T02:15:17;7.43;;;6.30;;
15876;SDS011;8037;51.666;7.834;2022-11-20T02:17:43;6.50;;;6.00;;
15876;SDS011;8037;51.666;7.834;2022-11-20T02:20:10;10.30;;;7.87;;
15876;SDS011;8037;51.666;7.834;2022-11-20T02:22:38;6.30;;;5.60;;
15876;SDS011;8037;51.666;7.834;2022-11-20T02:25:13;6.67;;;5.80;;
15876;SDS011;8037;51.666;7.834;2022-11-20T02:27:39;6.37;;;5.77;;
15876;SDS011;8037;51.666;7.834;2022-11-20T02:30:05;10.20;;;6.57;;
15876;SDS011;8037;51.666;7.834;2022-11-20T02:32:36;5.47;;;5.07;;
15876;SDS011;8037;51.666;7.834;2022-11-20T02:35:44;8.90;;;5.30;;
15876;SDS011;8037;51.666;7.834;2022-11-20T02:37:52;6.23;;;5.63;;
15876;SDS011;8037;51.666;7.834;2022-11-20T02:40:19;7.90;;;6.10;;
15876;SDS011;8037;51.666;7.834;2022-11-20T02:42:45;8.43;;;7.60;;
15876;SDS011;8037;51.666;7.834;2022-11-20T02:45:11;12.30;;;5.70;;
15876;SDS011;8037;51.666;7.834;2022-11-20T02:47:37;6.60;;;5.60;;
15876;SDS011;8037;51.666;7.834;2022-11-20T02:50:03;6.53;;;5.83;;
15876;SDS011;8037;51.666;7.834;2022-11-20T02:52:29;10.60;;;7.40;;
15876;SDS011;8037;51.666;7.834;2022-11-20T02:54:55;6.97;;;4.90;;
15876;SDS011;8037;51.666;7.834;2022-11-20T02:57:21;6.97;;;6.03;;
15876;SDS011;8037;51.666;7.834;2022-11-20T02:59:47;8.53;;;6.57;;
15876;SDS011;8037;51.666;7.834;2022-11-20T03:02:13;4.70;;;4.27;;
15876;SDS011;8037;51.666;7.834;2022-11-20T03:04:39;6.50;;;5.90;;
15876;SDS011;8037;51.666;7.834;2022-11-20T03:07:05;8.53;;;5.90;;
15876;SDS011;8037;51.666;7.834;2022-11-20T03:09:31;15.10;;;6.33;;
15876;SDS011;8037;51.666;7.834;2022-11-20T03:11:57;6.50;;;5.47;;
15876;SDS011;8037;51.666;7.834;2022-11-20T03:14:23;9.10;;;5.77;;
15876;SDS011;8037;51.666;7.834;2022-11-20T03:16:49;22.70;;;6.07;;
15876;SDS011;8037;51.666;7.834;2022-11-20T03:19:15;14.13;;;5.50;;
15876;SDS011;8037;51.666;7.834;2022-11-20T03:21:41;5.10;;;3.73;;
15876;SDS011;8037;51.666;7.834;2022-11-20T03:24:07;8.33;;;5.83;;
15876;SDS011;8037;51.666;7.834;2022-11-20T03:26:32;3.87;;;3.57;;
15876;SDS011;8037;51.666;7.834;2022-11-20T03:28:59;6.40;;;4.77;;
15876;SDS011;8037;51.666;7.834;2022-11-20T03:31:27;13.80;;;5.20;;
15876;SDS011;8037;51.666;7.834;2022-11-20T03:33:55;5.90;;;5.30;;
15876;SDS011;8037;51.666;7.834;2022-11-20T03:36:21;9.20;;;5.87;;
15876;SDS011;8037;51.666;7.834;2022-11-20T03:38:47;10.20;;;5.90;;
15876;SDS011;8037;51.666;7.834;2022-11-20T03:41:14;9.63;;;5.60;;
15876;SDS011;8037;51.666;7.834;2022-11-20T03:43:51;7.37;;;5.83;;
15876;SDS011;8037;51.666;7.834;2022-11-20T03:46:21;9.97;;;5.30;;
15876;SDS011;8037;51.666;7.834;2022-11-20T03:48:47;6.80;;;5.50;;
15876;SDS011;8037;51.666;7.834;2022-11-20T03:51:17;10.83;;;7.70;;
15876;SDS011;8037;51.666;7.834;2022-11-20T03:53:46;13.43;;;8.43;;
15876;SDS011;8037;51.666;7.834;2022-11-20T03:56:13;16.43;;;8.93;;
15876;SDS011;8037;51.666;7.834;2022-11-20T03:58:40;7.27;;;6.50;;
15876;SDS011;8037;51.666;7.834;2022-11-20T04:01:10;6.53;;;4.83;;
15876;SDS011;8037;51.666;7.834;2022-11-20T04:03:38;8.30;;;4.73;;
15876;SDS011;8037;51.666;7.834;2022-11-20T04:06:05;5.00;;;4.57;;
15876;SDS011;8037;51.666;7.834;2022-11-20T04:08:33;7.57;;;5.57;;
15876;SDS011;8037;51.666;7.834;2022-11-20T04:11:09;6.87;;;6.17;;
15876;SDS011;8037;51.666;7.834;2022-11-20T04:13:38;6.53;;;5.83;;
15876;SDS011;8037;51.666;7.834;2022-11-20T04:16:05;6.93;;;5.53;;
15876;SDS011;8037;51.666;7.834;2022-11-20T04:18:31;9.97;;;6.10;;
15876;SDS011;8037;51.666;7.834;2022-11-20T04:20:57;9.60;;;6.03;;
15876;SDS011;8037;51.666;7.834;2022-11-20T04:23:24;5.73;;;4.00;;
15876;SDS011;8037;51.666;7.834;2022-11-20T04:25:50;10.73;;;6.40;;
15876;SDS011;8037;51.666;7.834;2022-11-20T04:28:15;4.60;;;4.20;;
15876;SDS011;8037;51.666;7.834;2022-11-20T04:30:41;7.50;;;5.20;;
15876;SDS011;8037;51.666;7.834;2022-11-20T04:33:07;10.23;;;4.87;;
15876;SDS011;8037;51.666;7.834;2022-11-20T04:35:35;4.50;;;4.10;;
15876;SDS011;8037;51.666;7.834;2022-11-20T04:38:01;6.10;;;5.50;;
15876;SDS011;8037;51.666;7.834;2022-11-20T04:40:27;6.37;;;5.70;;
15876;SDS011;8037;51.666;7.834;2022-11-20T04:42:53;11.10;;;6.70;;
15876;SDS011;8037;51.666;7.834;2022-11-20T04:45:19;6.00;;;5.40;;
15876;SDS011;8037;51.666;7.834;2022-11-20T04:47:45;7.20;;;5.80;;
15876;SDS011;8037;51.666;7.834;2022-11-20T04:50:11;5.90;;;4.00;;
15876;SDS011;8037;51.666;7.834;2022-11-20T04:52:37;6.10;;;4.80;;
15876;SDS011;8037;51.666;7.834;2022-11-20T04:55:03;5.83;;;5.27;;
15876;SDS011;8037;51.666;7.834;2022-11-20T04:57:29;4.97;;;4.57;;
15876;SDS011;8037;51.666;7.834;2022-11-20T04:59:55;4.57;;;4.17;;
15876;SDS011;8037;51.666;7.834;2022-11-20T05:02:21;13.13;;;4.43;;
15876;SDS011;8037;51.666;7.834;2022-11-20T05:04:47;12.87;;;6.50;;
15876;SDS011;8037;51.666;7.834;2022-11-20T05:07:13;4.10;;;2.97;;
15876;SDS011;8037;51.666;7.834;2022-11-20T05:09:39;6.83;;;4.93;;
15876;SDS011;8037;51.666;7.834;2022-11-20T05:12:06;8.73;;;5.10;;
15876;SDS011;8037;51.666;7.834;2022-11-20T05:14:32;4.33;;;3.93;;
15876;SDS011;8037;51.666;7.834;2022-11-20T05:16:58;8.97;;;5.20;;
15876;SDS011;8037;51.666;7.834;2022-11-20T05:19:24;6.27;;;4.90;;
15876;SDS011;8037;51.666;7.834;2022-11-20T05:21:50;8.13;;;4.63;;
15876;SDS011;8037;51.666;7.834;2022-11-20T05:24:16;6.43;;;5.77;;
15876;SDS011;8037;51.666;7.834;2022-11-20T05:26:42;5.90;;;5.30;;
15876;SDS011;8037;51.666;7.834;2022-11-20T05:29:11;5.83;;;5.33;;
15876;SDS011;8037;51.666;7.834;2022-11-20T05:31:38;4.33;;;3.93;;
15876;SDS011;8037;51.666;7.834;2022-11-20T05:34:05;6.53;;;5.43;;
15876;SDS011;8037;51.666;7.834;2022-11-20T05:36:31;7.27;;;5.17;;
15876;SDS011;8037;51.666;7.834;2022-11-20T05:38:58;5.37;;;4.70;;
15876;SDS011;8037;51.666;7.834;2022-11-20T05:41:24;3.03;;;2.83;;
15876;SDS011;8037;51.666;7.834;2022-11-20T05:43:50;5.50;;;4.97;;
15876;SDS011;8037;51.666;7.834;2022-11-20T05:46:17;7.33;;;5.20;;
15876;SDS011;8037;51.666;7.834;2022-11-20T05:48:44;9.30;;;5.17;;
15876;SDS011;8037;51.666;7.834;2022-11-20T05:51:11;9.17;;;5.70;;
15876;SDS011;8037;51.666;7.834;2022-11-20T05:53:39;5.03;;;4.47;;
15876;SDS011;8037;51.666;7.834;2022-11-20T05:56:06;7.60;;;3.63;;
15876;SDS011;8037;51.666;7.834;2022-11-20T05:58:35;5.93;;;5.37;;
15876;SDS011;8037;51.666;7.834;2022-11-20T06:03:32;7.93;;;6.10;;
15876;SDS011;8037;51.666;7.834;2022-11-20T06:06:00;5.67;;;5.13;;
15876;SDS011;8037;51.666;7.834;2022-11-20T06:08:26;5.33;;;4.80;;
15876;SDS011;8037;51.666;7.834;2022-11-20T06:10:52;8.73;;;4.40;;
15876;SDS011;8037;51.666;7.834;2022-11-20T06:13:18;6.97;;;4.70;;
15876;SDS011;8037;51.666;7.834;2022-11-20T06:15:50;3.10;;;2.90;;
15876;SDS011;8037;51.666;7.834;2022-11-20T06:18:17;7.80;;;5.83;;
15876;SDS011;8037;51.666;7.834;2022-11-20T06:20:43;5.23;;;4.73;;
15876;SDS011;8037;51.666;7.834;2022-11-20T06:23:09;10.20;;;2.90;;
15876;SDS011;8037;51.666;7.834;2022-11-20T06:25:39;6.43;;;4.70;;
15876;SDS011;8037;51.666;7.834;2022-11-20T06:28:05;20.03;;;2.77;;
15876;SDS011;8037;51.666;7.834;2022-11-20T06:30:32;3.87;;;3.57;;
15876;SDS011;8037;51.666;7.834;2022-11-20T06:32:58;4.50;;;4.00;;
15876;SDS011;8037;51.666;7.834;2022-11-20T06:35:24;3.93;;;3.67;;
15876;SDS011;8037;51.666;7.834;2022-11-20T06:37:49;7.17;;;5.60;;
15876;SDS011;8037;51.666;7.834;2022-11-20T06:40:15;5.27;;;4.17;;
15876;SDS011;8037;51.666;7.834;2022-11-20T06:42:41;6.87;;;5.00;;
15876;SDS011;8037;51.666;7.834;2022-11-20T06:45:07;5.67;;;5.00;;
15876;SDS011;8037;51.666;7.834;2022-11-20T06:47:33;5.83;;;5.20;;
15876;SDS011;8037;51.666;7.834;2022-11-20T06:49:59;9.20;;;5.60;;
15876;SDS011;8037;51.666;7.834;2022-11-20T06:52:25;6.23;;;5.20;;
15876;SDS011;8037;51.666;7.834;2022-11-20T06:54:51;8.13;;;6.10;;
15876;SDS011;8037;51.666;7.834;2022-11-20T06:57:17;9.03;;;6.40;;
15876;SDS011;8037;51.666;7.834;2022-11-20T06:59:43;5.77;;;4.80;;
15876;SDS011;8037;51.666;7.834;2022-11-20T07:02:10;7.90;;;6.70;;
15876;SDS011;8037;51.666;7.834;2022-11-20T07:04:36;9.13;;;7.40;;
15876;SDS011;8037;51.666;7.834;2022-11-20T07:07:02;13.50;;;8.13;;
15876;SDS011;8037;51.666;7.834;2022-11-20T07:09:28;26.23;;;6.80;;
15876;SDS011;8037;51.666;7.834;2022-11-20T07:11:54;7.30;;;5.27;;
15876;SDS011;8037;51.666;7.834;2022-11-20T07:14:20;9.13;;;5.13;;
15876;SDS011;8037;51.666;7.834;2022-11-20T07:16:46;6.13;;;5.53;;
15876;SDS011;8037;51.666;7.834;2022-11-20T07:19:11;7.53;;;5.83;;
15876;SDS011;8037;51.666;7.834;2022-11-20T07:21:37;7.03;;;4.67;;
15876;SDS011;8037;51.666;7.834;2022-11-20T07:24:03;5.33;;;4.40;;
15876;SDS011;8037;51.666;7.834;2022-11-20T07:26:29;8.30;;;5.83;;
15876;SDS011;8037;51.666;7.834;2022-11-20T07:28:55;4.50;;;4.10;;
15876;SDS011;8037;51.666;7.834;2022-11-20T07:31:21;8.40;;;5.30;;
15876;SDS011;8037;51.666;7.834;2022-11-20T07:33:46;5.50;;;4.93;;
15876;SDS011;8037;51.666;7.834;2022-11-20T07:36:12;5.70;;;5.17;;
15876;SDS011;8037;51.666;7.834;2022-11-20T07:38:38;8.77;;;5.53;;
15876;SDS011;8037;51.666;7.834;2022-11-20T07:41:04;6.97;;;5.03;;
15876;SDS011;8037;51.666;7.834;2022-11-20T07:43:30;6.10;;;4.90;;
15876;SDS011;8037;51.666;7.834;2022-11-20T07:45:56;8.83;;;4.70;;
15876;SDS011;8037;51.666;7.834;2022-11-20T07:48:25;5.60;;;4.20;;
15876;SDS011;8037;51.666;7.834;2022-11-20T07:50:54;14.53;;;5.77;;
15876;SDS011;8037;51.666;7.834;2022-11-20T07:53:20;7.80;;;6.00;;
15876;SDS011;8037;51.666;7.834;2022-11-20T07:55:46;5.70;;;4.90;;
15876;SDS011;8037;51.666;7.834;2022-11-20T07:58:12;7.40;;;6.50;;
15876;SDS011;8037;51.666;7.834;2022-11-20T08:00:39;21.07;;;7.17;;
15876;SDS011;8037;51.666;7.834;2022-11-20T08:03:05;9.43;;;6.37;;
15876;SDS011;8037;51.666;7.834;2022-11-20T08:05:31;10.17;;;7.07;;
15876;SDS011;8037;51.666;7.834;2022-11-20T08:07:57;10.60;;;5.97;;
15876;SDS011;8037;51.666;7.834;2022-11-20T08:10:23;9.73;;;6.57;;
15876;SDS011;8037;51.666;7.834;2022-11-20T08:12:50;9.57;;;6.33;;
15876;SDS011;8037;51.666;7.834;2022-11-20T08:15:36;10.83;;;7.97;;
15876;SDS011;8037;51.666;7.834;2022-11-20T08:18:04;7.80;;;5.80;;
15876;SDS011;8037;51.666;7.834;2022-11-20T08:20:30;6.13;;;5.60;;
15876;SDS011;8037;51.666;7.834;2022-11-20T08:23:00;9.83;;;7.17;;
15876;SDS011;8037;51.666;7.834;2022-11-20T08:25:30;8.30;;;5.10;;
15876;SDS011;8037;51.666;7.834;2022-11-20T08:27:59;5.23;;;4.77;;
15876;SDS011;8037;51.666;7.834;2022-11-20T08:30:29;10.33;;;6.53;;
15876;SDS011;8037;51.666;7.834;2022-11-20T08:32:59;7.93;;;7.13;;
15876;SDS011;8037;51.666;7.834;2022-11-20T08:35:32;6.80;;;6.10;;
15876;SDS011;8037;51.666;7.834;2022-11-20T08:37:59;11.90;;;7.23;;
15876;SDS011;8037;51.666;7.834;2022-11-20T08:40:25;6.90;;;5.63;;
15876;SDS011;8037;51.666;7.834;2022-11-20T08:42:50;9.87;;;5.33;;
15876;SDS011;8037;51.666;7.834;2022-11-20T08:45:17;11.07;;;5.87;;
15876;SDS011;8037;51.666;7.834;2022-11-20T08:47:43;6.80;;;5.40;;
15876;SDS011;8037;51.666;7.834;2022-11-20T08:50:10;4.40;;;4.00;;
15876;SDS011;8037;51.666;7.834;2022-11-20T08:52:36;4.63;;;4.23;;
15876;SDS011;8037;51.666;7.834;2022-11-20T08:55:02;4.40;;;3.73;;
15876;SDS011;8037;51.666;7.834;2022-11-20T08:57:31;5.70;;;5.20;;
15876;SDS011;8037;51.666;7.834;2022-11-20T09:00:00;5.80;;;3.87;;
15876;SDS011;8037;51.666;7.834;2022-11-20T09:02:26;5.17;;;4.30;;
15876;SDS011;8037;51.666;7.834;2022-11-20T09:04:52;10.20;;;6.80;;
15876;SDS011;8037;51.666;7.834;2022-11-20T09:07:18;4.77;;;4.03;;
15876;SDS011;8037;51.666;7.834;2022-11-20T09:09:44;4.07;;;3.73;;
15876;SDS011;8037;51.666;7.834;2022-11-20T09:12:10;3.70;;;3.40;;
15876;SDS011;8037;51.666;7.834;2022-11-20T09:14:36;6.63;;;5.93;;
15876;SDS011;8037;51.666;7.834;2022-11-20T09:17:02;5.17;;;4.67;;
15876;SDS011;8037;51.666;7.834;2022-11-20T09:19:28;8.63;;;5.87;;
15876;SDS011;8037;51.666;7.834;2022-11-20T09:21:54;5.27;;;4.77;;
15876;SDS011;8037;51.666;7.834;2022-11-20T09:24:20;7.50;;;4.50;;
15876;SDS011;8037;51.666;7.834;2022-11-20T09:26:46;9.13;;;6.03;;
15876;SDS011;8037;51.666;7.834;2022-11-20T09:29:12;11.10;;;5.23;;
15876;SDS011;8037;51.666;7.834;2022-11-20T09:31:38;4.60;;;3.90;;
15876;SDS011;8037;51.666;7.834;2022-11-20T09:34:04;7.63;;;6.33;;
15876;SDS011;8037;51.666;7.834;2022-11-20T09:36:30;6.87;;;6.20;;
15876;SDS011;8037;51.666;7.834;2022-11-20T09:38:56;5.97;;;5.37;;
15876;SDS011;8037;51.666;7.834;2022-11-20T09:47:02;6.07;;;5.47;;
15876;SDS011;8037;51.666;7.834;2022-11-20T09:49:40;6.00;;;4.70;;
15876;SDS011;8037;51.666;7.834;2022-11-20T09:52:59;8.17;;;6.17;;
15876;SDS011;8037;51.666;7.834;2022-11-20T09:55:36;7.00;;;5.70;;
15876;SDS011;8037;51.666;7.834;2022-11-20T09:58:04;6.03;;;4.40;;
15876;SDS011;8037;51.666;7.834;2022-11-20T10:00:32;5.50;;;4.80;;
15876;SDS011;8037;51.666;7.834;2022-11-20T10:03:06;6.37;;;5.53;;
15876;SDS011;8037;51.666;7.834;2022-11-20T10:05:44;5.30;;;4.80;;
15876;SDS011;8037;51.666;7.834;2022-11-20T10:08:22;7.60;;;6.03;;
15876;SDS011;8037;51.666;7.834;2022-11-20T10:11:26;6.53;;;4.93;;
15876;SDS011;8037;51.666;7.834;2022-11-20T10:17:19;5.87;;;4.93;;
15876;SDS011;8037;51.666;7.834;2022-11-20T10:22:27;5.90;;;5.40;;
15876;SDS011;8037;51.666;7.834;2022-11-20T10:30:35;6.03;;;5.43;;
15876;SDS011;8037;51.666;7.834;2022-11-20T10:35:45;7.60;;;5.20;;
15876;SDS011;8037;51.666;7.834;2022-11-20T10:38:37;8.00;;;6.07;;
15876;SDS011;8037;51.666;7.834;2022-11-20T10:41:19;8.97;;;6.47;;
15876;SDS011;8037;51.666;7.834;2022-11-20T10:43:56;6.90;;;5.50;;
15876;SDS011;8037;51.666;7.834;2022-11-20T10:46:30;10.93;;;6.50;;
15876;SDS011;8037;51.666;7.834;2022-11-20T10:49:02;7.80;;;5.60;;
15876;SDS011;8037;51.666;7.834;2022-11-20T10:51:31;9.77;;;6.30;;
15876;SDS011;8037;51.666;7.834;2022-11-20T10:54:49;12.90;;;7.57;;
15876;SDS011;8037;51.666;7.834;2022-11-20T10:56:56;9.40;;;5.80;;
15876;SDS011;8037;51.666;7.834;2022-11-20T11:02:35;8.00;;;5.47;;
15876;SDS011;8037;51.666;7.834;2022-11-20T11:05:11;9.17;;;5.20;;
15876;SDS011;8037;51.666;7.834;2022-11-20T11:07:55;6.40;;;5.50;;
15876;SDS011;8037;51.666;7.834;2022-11-20T11:13:20;8.00;;;5.30;;
15876;SDS011;8037;51.666;7.834;2022-11-20T11:15:50;10.53;;;6.13;;
15876;SDS011;8037;51.666;7.834;2022-11-20T11:18:23;13.77;;;7.33;;
15876;SDS011;8037;51.666;7.834;2022-11-20T11:20:50;8.50;;;5.67;;
15876;SDS011;8037;51.666;7.834;2022-11-20T11:26:18;9.30;;;6.43;;
15876;SDS011;8037;51.666;7.834;2022-11-20T11:28:56;6.47;;;5.60;;
15876;SDS011;8037;51.666;7.834;2022-11-20T11:31:26;8.87;;;6.13;;
15876;SDS011;8037;51.666;7.834;2022-11-20T11:34:14;10.33;;;6.33;;
15876;SDS011;8037;51.666;7.834;2022-11-20T11:36:41;5.93;;;5.30;;
15876;SDS011;8037;51.666;7.834;2022-11-20T11:39:14;7.57;;;6.23;;
15876;SDS011;8037;51.666;7.834;2022-11-20T11:41:41;6.67;;;5.93;;
15876;SDS011;8037;51.666;7.834;2022-11-20T11:44:18;7.90;;;6.50;;
15876;SDS011;8037;51.666;7.834;2022-11-20T11:53:19;9.97;;;6.87;;
15876;SDS011;8037;51.666;7.834;2022-11-20T11:57:54;8.70;;;6.40;;
15876;SDS011;8037;51.666;7.834;2022-11-20T12:00:26;8.53;;;5.37;;
15876;SDS011;8037;51.666;7.834;2022-11-20T12:02:54;12.17;;;7.60;;
15876;SDS011;8037;51.666;7.834;2022-11-20T12:05:38;9.83;;;6.83;;
15876;SDS011;8037;51.666;7.834;2022-11-20T12:10:53;12.60;;;6.80;;
15876;SDS011;8037;51.666;7.834;2022-11-20T12:15:58;9.03;;;7.10;;
15876;SDS011;8037;51.666;7.834;2022-11-20T12:18:26;15.00;;;8.00;;
15876;SDS011;8037;51.666;7.834;2022-11-20T12:26:48;19.00;;;9.13;;
15876;SDS011;8037;51.666;7.834;2022-11-20T12:29:28;10.33;;;8.07;;
15876;SDS011;8037;51.666;7.834;2022-11-20T12:32:22;11.07;;;7.70;;
15876;SDS011;8037;51.666;7.834;2022-11-20T12:37:26;13.87;;;9.87;;
15876;SDS011;8037;51.666;7.834;2022-11-20T12:39:55;11.20;;;7.70;;
15876;SDS011;8037;51.666;7.834;2022-11-20T12:47:48;9.50;;;7.60;;
15876;SDS011;8037;51.666;7.834;2022-11-20T12:55:32;19.80;;;8.97;;
15876;SDS011;8037;51.666;7.834;2022-11-20T12:58:10;15.47;;;7.10;;
15876;SDS011;8037;51.666;7.834;2022-11-20T13:00:55;10.80;;;7.90;;
15876;SDS011;8037;51.666;7.834;2022-11-20T13:03:28;13.77;;;7.93;;
15876;SDS011;8037;51.666;7.834;2022-11-20T13:06:13;11.17;;;8.23;;
15876;SDS011;8037;51.666;7.834;2022-11-20T13:08:43;18.77;;;9.77;;
15876;SDS011;8037;51.666;7.834;2022-11-20T13:11:18;8.17;;;6.13;;
15876;SDS011;8037;51.666;7.834;2022-11-20T13:14:14;9.67;;;7.60;;
15876;SDS011;8037;51.666;7.834;2022-11-20T13:16:51;8.80;;;7.10;;
15876;SDS011;8037;51.666;7.834;2022-11-20T13:19:31;9.47;;;7.03;;
15876;SDS011;8037;51.666;7.834;2022-11-20T13:21:57;10.10;;;7.87;;
15876;SDS011;8037;51.666;7.834;2022-11-20T13:24:25;12.80;;;6.23;;
15876;SDS011;8037;51.666;7.834;2022-11-20T13:27:01;8.70;;;7.00;;
15876;SDS011;8037;51.666;7.834;2022-11-20T13:29:44;8.90;;;5.40;;
15876;SDS011;8037;51.666;7.834;2022-11-20T13:32:15;19.07;;;7.00;;
15876;SDS011;8037;51.666;7.834;2022-11-20T13:35:01;13.90;;;7.13;;
15876;SDS011;8037;51.666;7.834;2022-11-20T13:37:30;10.20;;;7.33;;
15876;SDS011;8037;51.666;7.834;2022-11-20T13:42:43;13.23;;;8.90;;
15876;SDS011;8037;51.666;7.834;2022-11-20T13:45:26;9.10;;;7.60;;
15876;SDS011;8037;51.666;7.834;2022-11-20T13:47:54;11.90;;;7.87;;
15876;SDS011;8037;51.666;7.834;2022-11-20T13:50:21;10.43;;;8.37;;
15876;SDS011;8037;51.666;7.834;2022-11-20T14:00:21;36.33;;;9.17;;
15876;SDS011;8037;51.666;7.834;2022-11-20T14:02:27;10.87;;;7.37;;
15876;SDS011;8037;51.666;7.834;2022-11-20T14:04:56;7.93;;;6.67;;
15876;SDS011;8037;51.666;7.834;2022-11-20T14:07:25;14.00;;;8.53;;
15876;SDS011;8037;51.666;7.834;2022-11-20T14:09:57;8.80;;;7.53;;
15876;SDS011;8037;51.666;7.834;2022-11-20T14:12:30;14.60;;;8.77;;
15876;SDS011;8037;51.666;7.834;2022-11-20T14:14:57;13.23;;;8.57;;
15876;SDS011;8037;51.666;7.834;2022-11-20T14:17:31;17.40;;;7.70;;
15876;SDS011;8037;51.666;7.834;2022-11-20T14:20:03;15.53;;;8.30;;
15876;SDS011;8037;51.666;7.834;2022-11-20T14:22:31;13.23;;;9.30;;
15876;SDS011;8037;51.666;7.834;2022-11-20T14:25:39;13.30;;;8.10;;
15876;SDS011;8037;51.666;7.834;2022-11-20T14:27:50;13.43;;;8.33;;
15876;SDS011;8037;51.666;7.834;2022-11-20T14:30:21;15.20;;;9.40;;
15876;SDS011;8037;51.666;7.834;2022-11-20T14:32:49;9.80;;;6.90;;
15876;SDS011;8037;51.666;7.834;2022-11-20T14:35:18;16.20;;;9.47;;
15876;SDS011;8037;51.666;7.834;2022-11-20T14:37:52;13.20;;;7.87;;
15876;SDS011;8037;51.666;7.834;2022-11-20T14:42:55;10.13;;;7.80;;
15876;SDS011;8037;51.666;7.834;2022-11-20T14:45:22;9.13;;;6.50;;
15876;SDS011;8037;51.666;7.834;2022-11-20T14:47:48;12.70;;;8.00;;
15876;SDS011;8037;51.666;7.834;2022-11-20T14:50:23;8.83;;;5.53;;
15876;SDS011;8037;51.666;7.834;2022-11-20T14:52:55;8.60;;;6.77;;
15876;SDS011;8037;51.666;7.834;2022-11-20T14:58:23;12.53;;;5.90;;
15876;SDS011;8037;51.666;7.834;2022-11-20T15:00:58;9.50;;;7.13;;
15876;SDS011;8037;51.666;7.834;2022-11-20T15:03:35;8.73;;;6.70;;
15876;SDS011;8037;51.666;7.834;2022-11-20T15:06:02;11.73;;;5.80;;
15876;SDS011;8037;51.666;7.834;2022-11-20T15:08:29;7.57;;;5.67;;
15876;SDS011;8037;51.666;7.834;2022-11-20T15:10:55;5.33;;;4.93;;
15876;SDS011;8037;51.666;7.834;2022-11-20T15:13:37;10.00;;;6.30;;
15876;SDS011;8037;51.666;7.834;2022-11-20T15:16:04;10.77;;;6.60;;
15876;SDS011;8037;51.666;7.834;2022-11-20T15:18:39;16.00;;;7.60;;
15876;SDS011;8037;51.666;7.834;2022-11-20T15:21:16;7.27;;;5.40;;
15876;SDS011;8037;51.666;7.834;2022-11-20T15:23:43;9.10;;;5.67;;
15876;SDS011;8037;51.666;7.834;2022-11-20T15:26:09;7.50;;;5.83;;
15876;SDS011;8037;51.666;7.834;2022-11-20T15:28:40;12.47;;;8.30;;
15876;SDS011;8037;51.666;7.834;2022-11-20T15:31:09;11.67;;;6.37;;
15876;SDS011;8037;51.666;7.834;2022-11-20T15:33:37;9.23;;;7.10;;
15876;SDS011;8037;51.666;7.834;2022-11-20T15:36:03;7.93;;;6.20;;
15876;SDS011;8037;51.666;7.834;2022-11-20T15:38:29;13.60;;;6.43;;
15876;SDS011;8037;51.666;7.834;2022-11-20T15:40:55;11.03;;;7.47;;
15876;SDS011;8037;51.666;7.834;2022-11-20T15:43:21;9.90;;;7.30;;
15876;SDS011;8037;51.666;7.834;2022-11-20T15:46:09;10.43;;;7.17;;
15876;SDS011;8037;51.666;7.834;2022-11-20T15:48:41;10.77;;;6.87;;
15876;SDS011;8037;51.666;7.834;2022-11-20T15:51:24;10.30;;;6.27;;
15876;SDS011;8037;51.666;7.834;2022-11-20T15:53:54;12.80;;;7.20;;
15876;SDS011;8037;51.666;7.834;2022-11-20T15:56:21;10.63;;;6.10;;
15876;SDS011;8037;51.666;7.834;2022-11-20T15:58:47;11.47;;;7.33;;
15876;SDS011;8037;51.666;7.834;2022-11-20T16:01:13;6.73;;;6.10;;
15876;SDS011;8037;51.666;7.834;2022-11-20T16:03:41;7.33;;;5.97;;
15876;SDS011;8037;51.666;7.834;2022-11-20T16:06:07;16.07;;;6.20;;
15876;SDS011;8037;51.666;7.834;2022-11-20T16:08:33;8.70;;;6.10;;
15876;SDS011;8037;51.666;7.834;2022-11-20T16:10:59;8.93;;;4.33;;
15876;SDS011;8037;51.666;7.834;2022-11-20T16:13:25;6.37;;;5.30;;
15876;SDS011;8037;51.666;7.834;2022-11-20T16:16:20;9.13;;;5.43;;
15876;SDS011;8037;51.666;7.834;2022-11-20T16:18:57;11.47;;;5.73;;
15876;SDS011;8037;51.666;7.834;2022-11-20T16:21:23;8.77;;;6.30;;
15876;SDS011;8037;51.666;7.834;2022-11-20T16:23:59;8.90;;;5.97;;
15876;SDS011;8037;51.666;7.834;2022-11-20T16:26:26;8.80;;;6.20;;
15876;SDS011;8037;51.666;7.834;2022-11-20T16:28:52;6.20;;;5.10;;
15876;SDS011;8037;51.666;7.834;2022-11-20T16:31:18;7.63;;;5.30;;